Data for 01/31/2007

Time Sea-Level Adjusted Pressure Absolute Pressure Temperature Relative Humidity Dew Point   
(mb) (inHg) (mb) (inHg) (C) (F) (%) (C) (F)
00:05 1017 30.03 846 24.98 -5.7 21.7 92 -6.8 19.7
00:10 1017 30.03 846 24.98 -5.7 21.7 92 -6.8 19.7
00:15 1017 30.03 847 25.01 -5.8 21.6 92 -6.9 19.7
00:20 1017 30.03 847 25.01 -5.8 21.5 92 -6.9 19.5
00:25 1018 30.06 847 25.01 -5.9 21.4 92 -7 19.4
00:30 1017 30.03 847 25.01 -5.9 21.3 92 -7.1 19.2
00:35 1017 30.03 847 25.01 -6 21.2 92 -7.1 19.2
00:40 1017 30.03 847 25.01 -6.1 21.1 92 -7.2 19
00:45 1017 30.03 847 25.01 -6.2 20.9 92 -7.3 18.9
00:50 1017 30.03 847 25.01 -6.2 20.9 91 -7.4 18.7
00:55 1017 30.03 847 25.01 -6.4 20.5 92 -7.5 18.4
01:00 1018 30.06 847 25.01 -6.5 20.4 92 -7.5 18.5
01:05 1018 30.06 847 25.01 -6.6 20.2 92 -7.6 18.3
01:10 1018 30.06 847 25.01 -6.7 20 93 -7.6 18.3
01:15 1018 30.06 847 25.01 -6.7 20 92 -7.7 18.1
01:20 1018 30.06 847 25.01 -6.8 19.7 92 -7.9 17.8
01:25 1018 30.06 847 25.01 -7.1 19.3 93 -8 17.6
01:30 1018 30.06 847 25.01 -7.3 18.8 93 -8.3 17.1
01:35 1018 30.06 847 25.01 -7.4 18.6 93 -8.3 17
01:40 1018 30.06 847 25.01 -7.4 18.6 89 -8.9 16
01:45 1018 30.06 847 25.01 -7.5 18.6 84 -9.7 14.6
01:50 1018 30.06 847 25.01 -7.5 18.5 84 -9.7 14.6
01:55 1018 30.06 847 25.01 -7.6 18.4 83 -10 13.9
02:00 1018 30.06 847 25.01 -7.6 18.4 81 -10.3 13.5
02:05 1018 30.06 847 25.01 -7.6 18.3 81 -10.4 13.3
02:10 1018 30.06 847 25.01 -7.6 18.3 80 -10.6 13
02:15 1018 30.06 847 25.01 -7.6 18.3 78 -10.8 12.5
02:20 1018 30.06 847 25.01 -7.6 18.4 77 -11 12.3
02:25 1018 30.06 847 25.01 -7.5 18.4 75 -11.2 11.9
02:30 1018 30.06 848 25.04 -7.5 18.4 76 -11.1 12
02:35 1018 30.06 848 25.04 -7.5 18.5 74 -11.4 11.5
02:40 1018 30.06 848 25.04 -7.5 18.5 72 -11.6 11.1
02:45 1018 30.06 848 25.04 -7.5 18.6 72 -11.7 11
02:50 1018 30.06 848 25.04 -7.5 18.5 72 -11.8 10.7
02:55 1018 30.06 848 25.04 -7.6 18.4 74 -11.4 11.4
03:00 1018 30.06 848 25.04 -7.7 18.2 74 -11.5 11.3
03:05 1018 30.06 847 25.01 -7.8 18 74 -11.6 11.1
03:10 1018 30.06 848 25.04 -7.7 18.1 75 -11.4 11.5
03:15 1018 30.06 848 25.04 -7.8 17.9 77 -11.2 11.8
03:20 1018 30.06 848 25.04 -7.9 17.8 78 -11.1 12
03:25 1018 30.06 848 25.04 -8 17.7 79 -11 12.2
03:30 1018 30.06 847 25.01 -8 17.6 79 -11.1 12.1
03:35 1018 30.06 848 25.04 -8.1 17.5 79 -11.1 12
03:40 1018 30.06 848 25.04 -8.1 17.5 79 -11.1 12.1
03:45 1018 30.06 848 25.04 -8 17.6 79 -11.1 12
03:50 1018 30.06 848 25.04 -8 17.6 78 -11.2 11.9
03:55 1018 30.06 848 25.04 -8 17.7 77 -11.2 11.8
04:00 1018 30.06 848 25.04 -8 17.6 77 -11.3 11.7
04:05 1018 30.06 848 25.04 -8 17.7 77 -11.4 11.6
04:10 1018 30.06 848 25.04 -8 17.6 77 -11.4 11.4
04:15 1018 30.06 848 25.04 -8 17.6 76 -11.6 11.1
04:20 1018 30.06 848 25.04 -8 17.5 75 -11.7 11
04:25 1018 30.06 848 25.04 -8 17.7 75 -11.7 10.9
04:30 1018 30.06 848 25.04 -8 17.6 75 -11.6 11.1
04:35 1018 30.06 847 25.01 -8 17.6 75 -11.7 10.9
04:40 1018 30.06 847 25.01 -8 17.6 75 -11.8 10.8
04:45 1018 30.06 847 25.01 -8.1 17.5 75 -11.7 10.9
04:50 1018 30.06 847 25.01 -8.1 17.4 75 -11.7 10.9
04:55 1018 30.06 847 25.01 -8.1 17.4 77 -11.5 11.3
05:00 1018 30.06 848 25.04 -8.1 17.4 79 -11 12.1
05:05 1018 30.06 848 25.04 -8.2 17.2 82 -10.9 12.5
05:10 1018 30.06 848 25.04 -8.3 17.1 83 -10.8 12.6
05:15 1018 30.06 848 25.04 -8.4 16.9 84 -10.6 12.9
05:20 1018 30.06 848 25.04 -8.4 16.9 85 -10.5 13.2
05:25 1018 30.06 848 25.04 -8.4 16.9 86 -10.4 13.3
05:30 1018 30.06 848 25.04 -8.4 16.8 85 -10.5 13.1
05:35 1018 30.06 847 25.01 -8.4 17 85 -10.4 13.2
05:40 1018 30.06 847 25.01 -8.3 17 86 -10.3 13.4
05:45 1018 30.06 848 25.04 -8.3 17 85 -10.4 13.3
05:50 1018 30.06 847 25.01 -8.3 17.1 86 -10.3 13.5
05:55 1018 30.06 848 25.04 -8.3 17 86 -10.2 13.6
06:00 1018 30.06 847 25.01 -8.4 16.8 85 -10.5 13.2
06:05 1018 30.06 847 25.01 -8.4 16.9 85 -10.4 13.2
06:10 1018 30.06 847 25.01 -8.3 17 86 -10.3 13.5
06:15 1018 30.06 847 25.01 -8.4 16.8 86 -10.4 13.2
06:20 1018 30.06 847 25.01 -8.5 16.8 86 -10.5 13.2
06:25 1018 30.06 847 25.01 -8.5 16.7 85 -10.6 12.9
06:30 1018 30.06 847 25.01 -8.6 16.6 84 -10.8 12.6
06:35 1018 30.06 848 25.04 -8.5 16.7 84 -10.8 12.6
06:40 1018 30.06 848 25.04 -8.5 16.7 84 -10.8 12.6
06:45 1018 30.06 848 25.04 -8.6 16.6 85 -10.7 12.7
06:50 1018 30.06 848 25.04 -8.5 16.6 84 -10.8 12.6
06:55 1019 30.09 848 25.04 -8.5 16.6 84 -10.8 12.6
07:00 1019 30.09 848 25.04 -8.6 16.6 83 -11 12.2
07:05 1019 30.09 848 25.04 -8.6 16.4 82 -11.2 11.8
07:10 1019 30.09 848 25.04 -8.7 16.4 82 -11.3 11.7
07:15 1019 30.09 848 25.04 -8.7 16.4 81 -11.4 11.6
07:20 1019 30.09 848 25.04 -8.7 16.4 81 -11.4 11.5
07:25 1019 30.09 848 25.04 -8.6 16.5 81 -11.3 11.7
07:30 1019 30.09 848 25.04 -8.6 16.5 82 -11.2 11.8
07:35 1019 30.09 848 25.04 -8.6 16.4 81 -11.3 11.7
07:40 1019 30.09 848 25.04 -8.7 16.4 81 -11.3 11.6
07:45 1019 30.09 848 25.04 -8.6 16.5 81 -11.3 11.7
07:50 1019 30.09 848 25.04 -8.6 16.5 79 -11.6 11.2
07:55 1019 30.09 848 25.04 -8.7 16.4 79 -11.7 11
08:00 1019 30.09 848 25.04 -8.7 16.3 79 -11.8 10.8
08:05 1019 30.09 848 25.04 -8.8 16.2 79 -11.9 10.6
08:10 1019 30.09 848 25.04 -8.8 16.2 78 -11.9 10.5
08:15 1019 30.09 848 25.04 -8.8 16.3 77 -12 10.4
08:20 1019 30.09 848 25.04 -8.9 16.1 77 -12.1 10.2
08:25 1019 30.09 848 25.04 -9 15.7 77 -12.3 9.8
08:30 1019 30.09 848 25.04 -9 15.7 78 -12.2 10
08:35 1019 30.09 848 25.04 -9 15.9 77 -12.3 9.9
08:40 1019 30.09 848 25.04 -9 15.9 77 -12.3 9.8
08:45 1018 30.06 848 25.04 -9.2 15.4 78 -12.3 9.9
08:50 1018 30.06 848 25.04 -9.1 15.6 78 -12.2 10.1
08:55 1018 30.06 848 25.04 -9.2 15.5 78 -12.3 9.9
09:00 1018 30.06 847 25.01 -9.1 15.7 77 -12.4 9.8
09:05 1018 30.06 847 25.01 -9 15.8 77 -12.4 9.7
09:10 1018 30.06 847 25.01 -9.1 15.7 77 -12.5 9.5
09:15 1018 30.06 847 25.01 -8.9 16 75 -12.5 9.4
09:20 1018 30.06 847 25.01 -8.4 16.8 73 -12.5 9.5
09:25 1018 30.06 847 25.01 -8.5 16.7 72 -12.7 9.2
09:30 1018 30.06 847 25.01 -9.2 15.5 76 -12.7 9.1
09:35 1018 30.06 847 25.01 -9.3 15.3 74 -13.1 8.4
09:40 1018 30.06 847 25.01 -9.8 14.5 76 -13.2 8.2
09:45 1018 30.06 847 25.01 -10.2 13.7 78 -13.3 8.1
09:50 1018 30.06 847 25.01 -10.2 13.6 78 -13.3 8
09:55 1018 30.06 847 25.01 -9.7 14.6 76 -13.1 8.4
10:00 1018 30.06 847 25.01 -9.4 15.1 75 -13.1 8.5
10:05 1018 30.06 847 25.01 -9 15.7 75 -12.8 9
10:10 1018 30.06 847 25.01 -7.4 18.8 66 -12.6 9.3
10:15 1018 30.06 847 25.01 -7.9 17.8 71 -12.2 10
10:20 1018 30.06 847 25.01 -7.8 17.9 70 -12.5 9.6
10:25 1018 30.06 847 25.01 -7.2 19.1 67 -12.4 9.7
10:30 1018 30.06 847 25.01 -7.2 19.1 68 -12.2 10.1
10:35 1018 30.06 847 25.01 -7.5 18.6 69 -12.2 10
10:40 1018 30.06 847 25.01 -7.5 18.5 69 -12.3 9.9
10:45 1018 30.06 847 25.01 -7.3 18.9 68 -12.2 10.1
10:50 1018 30.06 847 25.01 -7.5 18.6 69 -12.3 9.9
10:55 1018 30.06 847 25.01 -7.2 19 67 -12.4 9.8
11:00 1017 30.03 847 25.01 -7.3 18.8 69 -12.1 10.3
11:05 1017 30.03 847 25.01 -7.4 18.7 67 -12.5 9.6
11:10 1017 30.03 846 24.98 -7.3 18.9 67 -12.5 9.6
11:15 1017 30.03 846 24.98 -7.9 17.7 68 -12.8 8.9
11:20 1017 30.03 846 24.98 -8.2 17.2 68 -13.1 8.4
11:25 1017 30.03 846 24.98 -8.3 17.1 70 -12.9 8.8
11:30 1017 30.03 846 24.98 -7.5 18.4 62 -13.5 7.6
11:35 1017 30.03 846 24.98 -6.9 19.7 60 -13.4 8
11:40 1017 30.03 846 24.98 -5.9 21.3 58 -12.9 8.7
11:45 1017 30.03 846 24.98 -5.3 22.5 54 -13.2 8.2
11:50 1016 30 846 24.98 -5.2 22.6 54 -13.2 8.2
11:55 1016 30 846 24.98 -5.4 22.3 55 -13.1 8.4
12:00 1016 30 846 24.98 -5.2 22.6 53 -13.5 7.8
12:05 1016 30 845 24.95 -5.1 22.8 53 -13.2 8.2
12:10 1016 30 845 24.95 -5.1 22.9 53 -13.3 8.1
12:15 1016 30 845 24.95 -4.5 23.9 50 -13.4 7.9
12:20 1016 30 845 24.95 -4.3 24.3 50 -13.3 8.1
12:25 1016 30 845 24.95 -4.4 24.2 51 -13.1 8.5
12:30 1016 30 845 24.95 -4.2 24.5 50 -13.2 8.2
12:35 1016 30 845 24.95 -4.4 24.1 50 -13.3 8
12:40 1016 30 845 24.95 -4.6 23.6 51 -13.4 7.8
12:45 1016 30 845 24.95 -4.5 23.9 50 -13.5 7.7
12:50 1015 29.97 845 24.95 -4.1 24.5 46 -14 6.7
12:55 1015 29.97 845 24.95 -3.9 25 46 -14 6.9
13:00 1015 29.97 844 24.92 -4.4 24.1 48 -13.9 6.9
13:05 1015 29.97 844 24.92 -4.3 24.2 46 -14.2 6.4
13:10 1015 29.97 844 24.92 -5.6 22 48 -14.8 5.4
13:15 1015 29.97 844 24.92 -6.2 20.9 50 -15 5
13:20 1015 29.97 844 24.92 -6.3 20.7 48 -15.5 4.2
13:25 1015 29.97 844 24.92 -5.8 21.5 48 -15.1 4.7
13:30 1015 29.97 844 24.92 -5.1 22.7 46 -15.2 4.7
13:35 1015 29.97 844 24.92 -4.2 24.5 41 -15.5 4.2
13:40 1014 29.94 844 24.92 -4 24.8 41 -15.4 4.3
13:45 1014 29.94 844 24.92 -4 24.9 42 -15.2 4.6
13:50 1014 29.94 843 24.89 -3.4 25.8 40 -15.1 4.9
13:55 1014 29.94 843 24.89 -4.4 24.1 44 -14.9 5.2
14:00 1014 29.94 843 24.89 -3.8 25.2 41 -15.1 4.8
14:05 1014 29.94 843 24.89 -3.2 26.3 39 -15.2 4.6
14:10 1014 29.94 843 24.89 -3.2 26.3 40 -15.1 4.8
14:15 1014 29.94 843 24.89 -2.7 27.1 38 -15.3 4.4
14:20 1014 29.94 843 24.89 -3.2 26.2 41 -14.8 5.4
14:25 1013 29.91 843 24.89 -3.1 26.5 39 -15.2 4.7
14:30 1013 29.91 843 24.89 -2.8 27 38 -15.3 4.4
14:35 1013 29.91 843 24.89 -2.7 27.1 37 -15.6 4
14:40 1013 29.91 843 24.89 -3 26.7 38 -15.5 4.1
14:45 1013 29.91 842 24.86 -2.7 27.1 39 -14.9 5.2
14:50 1013 29.91 842 24.86 -2.5 27.4 37 -15.5 4.1
14:55 1013 29.91 842 24.86 -3.2 26.3 41 -14.6 5.7
15:00 1013 29.91 842 24.86 -2.9 26.8 39 -15 4.9
15:05 1013 29.91 842 24.86 -3.1 26.5 42 -14.3 6.2
15:10 1013 29.91 842 24.86 -4 24.9 47 -13.8 7.2
15:15 1013 29.91 842 24.86 -3.7 25.4 43 -14.7 5.6
15:20 1013 29.91 842 24.86 -4.3 24.2 46 -14.2 6.5
15:25 1013 29.91 842 24.86 -5 22.9 48 -14.4 6.2
15:30 1013 29.91 842 24.86 -5.2 22.7 47 -14.9 5.1
15:35 1013 29.91 842 24.86 -5.6 22 48 -14.9 5.2
15:40 1013 29.91 842 24.86 -5.4 22.4 46 -15.3 4.5
15:45 1013 29.91 842 24.86 -5.4 22.3 47 -15 5.1
15:50 1013 29.91 842 24.86 -5.7 21.7 47 -15.2 4.6
15:55 1013 29.91 842 24.86 -5.9 21.4 48 -15.2 4.6
16:00 1012 29.88 842 24.86 -5.8 21.6 48 -15 5
16:05 1012 29.88 842 24.86 -5.5 22 48 -14.8 5.3
16:10 1012 29.88 842 24.86 -5.4 22.3 48 -14.7 5.6
16:15 1012 29.88 842 24.86 -5.5 22.1 48 -14.8 5.4
16:20 1012 29.88 842 24.86 -5.5 22.1 47 -15.1 4.9
16:25 1012 29.88 841 24.83 -5.7 21.7 48 -15.2 4.7
16:30 1012 29.88 841 24.83 -5.8 21.5 48 -15.1 4.9
16:35 1012 29.88 841 24.83 -5.8 21.5 48 -15.2 4.7
16:40 1012 29.88 841 24.83 -5.6 22 48 -14.8 5.3
16:45 1012 29.88 841 24.83 -5.5 22.1 51 -14.1 6.5
16:50 1012 29.88 841 24.83 -5.6 21.9 49 -14.8 5.4
16:55 1012 29.88 841 24.83 -5.5 22.2 53 -13.6 7.4
17:00 1012 29.88 841 24.83 -5 22.9 51 -13.7 7.3
17:05 1012 29.88 841 24.83 -5.6 22 53 -13.8 7.1
17:10 1012 29.88 841 24.83 -6 21.2 52 -14.3 6.3
17:15 1012 29.88 841 24.83 -6.1 20.9 54 -14 6.8
17:20 1012 29.88 841 24.83 -6.5 20.3 55 -14.1 6.6
17:25 1012 29.88 841 24.83 -6.6 20.2 53 -14.7 5.5
17:30 1012 29.88 841 24.83 -6.3 20.6 55 -14 6.8
17:35 1012 29.88 841 24.83 -6.3 20.7 56 -13.7 7.4
17:40 1012 29.88 841 24.83 -6.4 20.5 53 -14.4 6
17:45 1012 29.88 841 24.83 -6.3 20.7 55 -13.9 6.9
17:50 1012 29.88 841 24.83 -6.2 20.9 56 -13.5 7.6
17:55 1012 29.88 841 24.83 -6 21.2 57 -13.3 8.1
18:00 1012 29.88 841 24.83 -6.4 20.4 57 -13.6 7.5
18:05 1012 29.88 841 24.83 -6.5 20.3 58 -13.5 7.7
18:10 1012 29.88 841 24.83 -7.2 19.1 59 -13.8 7.2
18:15 1012 29.88 841 24.83 -7.2 19 58 -14.2 6.4
18:20 1012 29.88 841 24.83 -6.9 19.6 59 -13.7 7.4
18:25 1012 29.88 841 24.83 -7.5 18.4 62 -13.7 7.3
18:30 1012 29.88 841 24.83 -7.6 18.4 60 -14 6.7
18:35 1012 29.88 841 24.83 -7.6 18.4 62 -13.7 7.4
18:40 1012 29.88 841 24.83 -7.4 18.7 58 -14.3 6.2
18:45 1012 29.88 841 24.83 -7.1 19.3 59 -13.8 7.1
18:50 1012 29.88 842 24.86 -7 19.4 59 -13.8 7.2
18:55 1012 29.88 842 24.86 -7.1 19.2 60 -13.7 7.4
19:00 1012 29.88 842 24.86 -7 19.4 60 -13.5 7.6
19:05 1012 29.88 842 24.86 -6.9 19.7 60 -13.5 7.8
19:10 1012 29.88 842 24.86 -6.8 19.7 59 -13.6 7.4
19:15 1012 29.88 842 24.86 -6.8 19.8 59 -13.6 7.6
19:20 1012 29.88 842 24.86 -6.9 19.5 58 -13.8 7.2
19:25 1012 29.88 842 24.86 -6.9 19.6 59 -13.7 7.4
19:30 1012 29.88 842 24.86 -6.9 19.7 58 -13.8 7.1
19:35 1012 29.88 842 24.86 -6.8 19.8 58 -13.7 7.4
19:40 1012 29.88 842 24.86 -6.5 20.2 59 -13.2 8.2
19:45 1012 29.88 842 24.86 -6.3 20.6 59 -13.1 8.5
19:50 1012 29.88 842 24.86 -6.1 21.1 59 -12.8 8.9
19:55 1013 29.91 842 24.86 -6.3 20.7 58 -13.2 8.3
20:00 1013 29.91 842 24.86 -6.4 20.5 60 -13 8.7
20:05 1012 29.88 842 24.86 -6.4 20.4 62 -12.7 9.2
20:10 1012 29.88 842 24.86 -6.3 20.6 61 -12.8 9
20:15 1012 29.88 842 24.86 -6.4 20.5 62 -12.5 9.4
20:20 1012 29.88 842 24.86 -6.5 20.3 63 -12.4 9.6
20:25 1012 29.88 842 24.86 -6.2 20.9 61 -12.5 9.5
20:30 1012 29.88 842 24.86 -5.7 21.7 56 -13.2 8.3
20:35 1012 29.88 842 24.86 -5.5 22.1 57 -12.6 9.3
20:40 1012 29.88 842 24.86 -5.4 22.3 58 -12.5 9.5
20:45 1013 29.91 842 24.86 -5.7 21.7 59 -12.4 9.7
20:50 1013 29.91 842 24.86 -6.1 21 63 -12.1 10.3
20:55 1013 29.91 842 24.86 -5.9 21.4 63 -11.9 10.6
21:00 1013 29.91 842 24.86 -5.8 21.6 64 -11.5 11.2
21:05 1013 29.91 842 24.86 -5.8 21.6 67 -11 12.1
21:10 1013 29.91 842 24.86 -5.8 21.6 70 -10.5 13.1
21:15 1013 29.91 842 24.86 -5.9 21.3 73 -9.9 14.1
21:20 1013 29.91 842 24.86 -6.1 21 77 -9.5 15
21:25 1013 29.91 842 24.86 -6.2 20.8 80 -9.2 15.5
21:30 1013 29.91 842 24.86 -6.2 20.8 81 -8.9 16
21:35 1013 29.91 842 24.86 -6.3 20.6 84 -8.7 16.4
21:40 1013 29.91 842 24.86 -6.4 20.5 85 -8.6 16.6
21:45 1012 29.88 842 24.86 -6.7 19.9 87 -8.6 16.6
21:50 1012 29.88 842 24.86 -6.8 19.7 88 -8.5 16.6
21:55 1012 29.88 842 24.86 -7 19.3 88 -8.7 16.4
22:00 1012 29.88 842 24.86 -7.1 19.3 89 -8.6 16.5
22:05 1012 29.88 842 24.86 -7.4 18.8 90 -8.7 16.3
22:10 1012 29.88 842 24.86 -7.7 18.1 91 -9 15.8
22:15 1012 29.88 842 24.86 -7.9 17.9 92 -8.9 15.9
22:20 1012 29.88 842 24.86 -7.9 17.8 92 -8.9 15.9
22:25 1012 29.88 842 24.86 -7.6 18.2 92 -8.7 16.3
22:30 1012 29.88 841 24.83 -7.4 18.7 90 -8.7 16.3
22:35 1012 29.88 841 24.83 -7.4 18.7 90 -8.7 16.3
22:40 1012 29.88 842 24.86 -7.2 19 89 -8.7 16.3
22:45 1012 29.88 841 24.83 -7 19.4 88 -8.7 16.4
22:50 1012 29.88 841 24.83 -6.8 19.7 86 -8.7 16.3
22:55 1012 29.88 841 24.83 -6.8 19.8 86 -8.7 16.3
23:00 1012 29.88 841 24.83 -6.6 20.2 83 -8.9 15.9
23:05 1012 29.88 841 24.83 -6.5 20.2 83 -9 15.8
23:10 1012 29.88 841 24.83 -6.5 20.2 83 -8.9 15.9
23:15 1012 29.88 841 24.83 -6.6 20.2 83 -8.9 15.9
23:20 1012 29.88 841 24.83 -6.5 20.3 83 -9 15.9
23:25 1012 29.88 841 24.83 -6.5 20.2 83 -8.9 15.9
23:30 1012 29.88 841 24.83 -6.5 20.4 82 -9 15.8
23:35 1012 29.88 841 24.83 -6.3 20.6 81 -9.1 15.6
23:40 1012 29.88 841 24.83 -6.2 20.8 82 -8.8 16.1
23:45 1012 29.88 841 24.83 -6.4 20.5 83 -8.7 16.3
23:50 1012 29.88 841 24.83 -6.5 20.3 84 -8.7 16.3
23:55 1012 29.88 841 24.83 -6.6 20.1 86 -8.6 16.5
24:00 1012 29.88 841 24.83 -6.6 20.1 87 -8.5 16.7